sensor_id;sensor_type;location;lat;lon;timestamp;temperature;humidity
52965;DHT22;42923;53.220;6.528;2023-03-23T00:01:04;9.80;99.90
52965;DHT22;42923;53.220;6.528;2023-03-23T00:03:30;9.90;99.90
52965;DHT22;42923;53.220;6.528;2023-03-23T00:05:59;9.90;99.90
52965;DHT22;42923;53.220;6.528;2023-03-23T00:08:31;9.90;99.90
52965;DHT22;42923;53.220;6.528;2023-03-23T00:10:57;9.90;99.90
52965;DHT22;42923;53.220;6.528;2023-03-23T00:13:24;9.90;99.90
52965;DHT22;42923;53.220;6.528;2023-03-23T00:15:49;9.90;99.90
52965;DHT22;42923;53.220;6.528;2023-03-23T00:18:21;10.00;99.90
52965;DHT22;42923;53.220;6.528;2023-03-23T00:20:51;10.00;99.90
52965;DHT22;42923;53.220;6.528;2023-03-23T00:23:19;10.00;99.90
52965;DHT22;42923;53.220;6.528;2023-03-23T00:25:51;10.00;99.90
52965;DHT22;42923;53.220;6.528;2023-03-23T00:28:22;10.00;99.90
52965;DHT22;42923;53.220;6.528;2023-03-23T00:31:03;10.00;99.90
52965;DHT22;42923;53.220;6.528;2023-03-23T00:33:36;10.00;99.90
52965;DHT22;42923;53.220;6.528;2023-03-23T00:36:08;9.90;99.90
52965;DHT22;42923;53.220;6.528;2023-03-23T00:38:35;9.90;99.90
52965;DHT22;42923;53.220;6.528;2023-03-23T00:41:01;10.00;99.90
52965;DHT22;42923;53.220;6.528;2023-03-23T00:43:28;10.20;99.90
52965;DHT22;42923;53.220;6.528;2023-03-23T00:45:55;10.00;99.90
52965;DHT22;42923;53.220;6.528;2023-03-23T00:48:22;10.00;99.90
52965;DHT22;42923;53.220;6.528;2023-03-23T00:50:49;10.00;99.90
52965;DHT22;42923;53.220;6.528;2023-03-23T00:53:15;10.10;99.90
52965;DHT22;42923;53.220;6.528;2023-03-23T00:55:46;10.20;99.90
52965;DHT22;42923;53.220;6.528;2023-03-23T00:58:13;10.10;99.90
52965;DHT22;42923;53.220;6.528;2023-03-23T01:00:39;10.10;99.90
52965;DHT22;42923;53.220;6.528;2023-03-23T01:03:06;10.20;99.90
52965;DHT22;42923;53.220;6.528;2023-03-23T01:05:36;10.30;99.90
52965;DHT22;42923;53.220;6.528;2023-03-23T01:08:03;10.30;99.90
52965;DHT22;42923;53.220;6.528;2023-03-23T01:10:30;10.30;99.90
52965;DHT22;42923;53.220;6.528;2023-03-23T01:12:59;10.30;99.90
52965;DHT22;42923;53.220;6.528;2023-03-23T01:15:26;10.30;99.90
52965;DHT22;42923;53.220;6.528;2023-03-23T01:17:53;10.30;99.90
52965;DHT22;42923;53.220;6.528;2023-03-23T01:20:18;10.10;99.90
52965;DHT22;42923;53.220;6.528;2023-03-23T01:22:45;10.00;99.90
52965;DHT22;42923;53.220;6.528;2023-03-23T01:25:12;9.90;99.90
52965;DHT22;42923;53.220;6.528;2023-03-23T01:27:38;9.80;99.90
52965;DHT22;42923;53.220;6.528;2023-03-23T01:30:05;9.80;99.90
52965;DHT22;42923;53.220;6.528;2023-03-23T01:32:32;9.70;99.90
52965;DHT22;42923;53.220;6.528;2023-03-23T01:34:58;9.70;99.90
52965;DHT22;42923;53.220;6.528;2023-03-23T01:37:24;9.70;99.90
52965;DHT22;42923;53.220;6.528;2023-03-23T01:39:56;9.70;99.90
52965;DHT22;42923;53.220;6.528;2023-03-23T01:42:23;9.70;99.90
52965;DHT22;42923;53.220;6.528;2023-03-23T01:47:20;10.10;99.90
52965;DHT22;42923;53.220;6.528;2023-03-23T01:49:49;9.90;99.90
52965;DHT22;42923;53.220;6.528;2023-03-23T01:52:22;10.00;99.90
52965;DHT22;42923;53.220;6.528;2023-03-23T01:54:52;10.00;99.90
52965;DHT22;42923;53.220;6.528;2023-03-23T01:57:21;10.10;99.90
52965;DHT22;42923;53.220;6.528;2023-03-23T01:59:51;10.20;99.90
52965;DHT22;42923;53.220;6.528;2023-03-23T02:02:24;10.20;99.90
52965;DHT22;42923;53.220;6.528;2023-03-23T02:04:51;10.20;99.90
52965;DHT22;42923;53.220;6.528;2023-03-23T02:07:21;10.30;99.90
52965;DHT22;42923;53.220;6.528;2023-03-23T02:09:50;10.30;99.90
52965;DHT22;42923;53.220;6.528;2023-03-23T02:12:16;10.40;99.90
52965;DHT22;42923;53.220;6.528;2023-03-23T02:14:42;10.40;99.90
52965;DHT22;42923;53.220;6.528;2023-03-23T02:17:14;10.50;99.90
52965;DHT22;42923;53.220;6.528;2023-03-23T02:31:56;10.60;99.90
52965;DHT22;42923;53.220;6.528;2023-03-23T02:34:34;10.60;99.90
52965;DHT22;42923;53.220;6.528;2023-03-23T02:40:14;10.60;99.90
52965;DHT22;42923;53.220;6.528;2023-03-23T02:42:44;10.60;99.90
52965;DHT22;42923;53.220;6.528;2023-03-23T02:45:11;10.60;99.90
52965;DHT22;42923;53.220;6.528;2023-03-23T02:47:39;10.60;99.90
52965;DHT22;42923;53.220;6.528;2023-03-23T02:50:10;10.70;99.90
52965;DHT22;42923;53.220;6.528;2023-03-23T02:52:37;10.70;99.90
52965;DHT22;42923;53.220;6.528;2023-03-23T02:55:05;10.70;99.90
52965;DHT22;42923;53.220;6.528;2023-03-23T02:57:31;10.70;99.90
52965;DHT22;42923;53.220;6.528;2023-03-23T03:00:00;10.80;99.90
52965;DHT22;42923;53.220;6.528;2023-03-23T03:02:33;10.70;99.90
52965;DHT22;42923;53.220;6.528;2023-03-23T03:07:47;10.70;99.90
52965;DHT22;42923;53.220;6.528;2023-03-23T03:10:54;10.70;99.90
52965;DHT22;42923;53.220;6.528;2023-03-23T03:16:18;10.80;99.90
52965;DHT22;42923;53.220;6.528;2023-03-23T03:19:09;10.70;99.90
52965;DHT22;42923;53.220;6.528;2023-03-23T03:21:40;10.70;99.90
52965;DHT22;42923;53.220;6.528;2023-03-23T03:24:08;10.70;99.90
52965;DHT22;42923;53.220;6.528;2023-03-23T03:26:42;10.60;99.90
52965;DHT22;42923;53.220;6.528;2023-03-23T03:29:32;10.60;99.90
52965;DHT22;42923;53.220;6.528;2023-03-23T03:32:02;10.60;99.90
52965;DHT22;42923;53.220;6.528;2023-03-23T03:34:32;10.60;99.90
52965;DHT22;42923;53.220;6.528;2023-03-23T03:37:08;10.90;99.90
52965;DHT22;42923;53.220;6.528;2023-03-23T03:39:44;10.60;99.90
52965;DHT22;42923;53.220;6.528;2023-03-23T03:42:10;10.70;99.90
52965;DHT22;42923;53.220;6.528;2023-03-23T03:44:37;10.60;99.90
52965;DHT22;42923;53.220;6.528;2023-03-23T03:47:03;10.70;99.90
52965;DHT22;42923;53.220;6.528;2023-03-23T03:49:29;10.70;99.90
52965;DHT22;42923;53.220;6.528;2023-03-23T03:51:56;10.70;99.90
52965;DHT22;42923;53.220;6.528;2023-03-23T03:54:26;10.70;99.90
52965;DHT22;42923;53.220;6.528;2023-03-23T03:56:52;10.80;99.90
52965;DHT22;42923;53.220;6.528;2023-03-23T03:59:49;10.70;99.90
52965;DHT22;42923;53.220;6.528;2023-03-23T04:02:15;10.70;99.90
52965;DHT22;42923;53.220;6.528;2023-03-23T04:04:46;10.60;99.90
52965;DHT22;42923;53.220;6.528;2023-03-23T04:07:12;10.50;99.90
52965;DHT22;42923;53.220;6.528;2023-03-23T04:09:46;10.50;99.90
52965;DHT22;42923;53.220;6.528;2023-03-23T04:12:15;10.40;99.90
52965;DHT22;42923;53.220;6.528;2023-03-23T04:14:55;10.30;99.90
52965;DHT22;42923;53.220;6.528;2023-03-23T04:17:25;10.30;99.90
52965;DHT22;42923;53.220;6.528;2023-03-23T04:19:54;10.20;99.90
52965;DHT22;42923;53.220;6.528;2023-03-23T04:22:23;10.10;99.90
52965;DHT22;42923;53.220;6.528;2023-03-23T04:25:00;10.10;99.90
52965;DHT22;42923;53.220;6.528;2023-03-23T04:27:28;10.00;99.90
52965;DHT22;42923;53.220;6.528;2023-03-23T04:29:57;9.90;99.90
52965;DHT22;42923;53.220;6.528;2023-03-23T04:32:50;10.00;99.90
52965;DHT22;42923;53.220;6.528;2023-03-23T04:35:22;9.80;99.90
52965;DHT22;42923;53.220;6.528;2023-03-23T04:37:59;9.90;99.90
52965;DHT22;42923;53.220;6.528;2023-03-23T04:40:24;9.90;99.90
52965;DHT22;42923;53.220;6.528;2023-03-23T04:43:13;9.80;99.90
52965;DHT22;42923;53.220;6.528;2023-03-23T04:46:03;9.80;99.90
52965;DHT22;42923;53.220;6.528;2023-03-23T04:48:34;9.80;99.90
52965;DHT22;42923;53.220;6.528;2023-03-23T04:51:12;9.70;99.90
52965;DHT22;42923;53.220;6.528;2023-03-23T04:53:40;9.70;99.90
52965;DHT22;42923;53.220;6.528;2023-03-23T04:56:07;9.70;99.90
52965;DHT22;42923;53.220;6.528;2023-03-23T04:58:39;9.60;99.90
52965;DHT22;42923;53.220;6.528;2023-03-23T05:01:14;9.60;99.90
52965;DHT22;42923;53.220;6.528;2023-03-23T05:03:48;9.60;99.90
52965;DHT22;42923;53.220;6.528;2023-03-23T05:06:14;9.50;99.90
52965;DHT22;42923;53.220;6.528;2023-03-23T05:08:41;9.60;99.90
52965;DHT22;42923;53.220;6.528;2023-03-23T05:11:07;9.50;99.90
52965;DHT22;42923;53.220;6.528;2023-03-23T05:13:36;9.50;99.90
52965;DHT22;42923;53.220;6.528;2023-03-23T05:16:04;9.50;99.90
52965;DHT22;42923;53.220;6.528;2023-03-23T05:18:30;9.60;99.90
52965;DHT22;42923;53.220;6.528;2023-03-23T05:21:02;9.70;99.90
52965;DHT22;42923;53.220;6.528;2023-03-23T05:23:31;9.70;99.90
52965;DHT22;42923;53.220;6.528;2023-03-23T05:26:05;9.80;99.90
52965;DHT22;42923;53.220;6.528;2023-03-23T05:28:32;9.80;99.90
52965;DHT22;42923;53.220;6.528;2023-03-23T05:31:05;9.90;99.90
52965;DHT22;42923;53.220;6.528;2023-03-23T05:33:32;10.00;99.90
52965;DHT22;42923;53.220;6.528;2023-03-23T05:36:16;10.00;99.90
52965;DHT22;42923;53.220;6.528;2023-03-23T05:39:02;10.00;99.90
52965;DHT22;42923;53.220;6.528;2023-03-23T05:41:42;10.10;99.90
52965;DHT22;42923;53.220;6.528;2023-03-23T05:44:07;10.00;99.90
52965;DHT22;42923;53.220;6.528;2023-03-23T05:46:48;10.10;99.90
52965;DHT22;42923;53.220;6.528;2023-03-23T05:49:15;10.10;99.90
52965;DHT22;42923;53.220;6.528;2023-03-23T05:51:46;10.00;99.90
52965;DHT22;42923;53.220;6.528;2023-03-23T05:54:13;10.00;99.90
52965;DHT22;42923;53.220;6.528;2023-03-23T05:56:41;10.00;99.90
52965;DHT22;42923;53.220;6.528;2023-03-23T05:59:20;10.00;99.90
52965;DHT22;42923;53.220;6.528;2023-03-23T06:01:51;10.00;99.90
52965;DHT22;42923;53.220;6.528;2023-03-23T06:04:19;10.30;99.90
52965;DHT22;42923;53.220;6.528;2023-03-23T06:06:57;10.10;99.90
52965;DHT22;42923;53.220;6.528;2023-03-23T06:09:23;10.00;99.90
52965;DHT22;42923;53.220;6.528;2023-03-23T06:12:09;10.00;99.90
52965;DHT22;42923;53.220;6.528;2023-03-23T06:14:52;10.00;99.90
52965;DHT22;42923;53.220;6.528;2023-03-23T06:17:23;10.00;99.90
52965;DHT22;42923;53.220;6.528;2023-03-23T06:19:52;10.00;99.90
52965;DHT22;42923;53.220;6.528;2023-03-23T06:22:18;10.10;99.90
52965;DHT22;42923;53.220;6.528;2023-03-23T06:25:02;10.10;99.90
52965;DHT22;42923;53.220;6.528;2023-03-23T06:27:37;10.10;99.90
52965;DHT22;42923;53.220;6.528;2023-03-23T06:30:04;10.20;99.90
52965;DHT22;42923;53.220;6.528;2023-03-23T06:32:32;10.20;99.90
52965;DHT22;42923;53.220;6.528;2023-03-23T06:34:59;10.30;99.90
52965;DHT22;42923;53.220;6.528;2023-03-23T06:37:43;10.20;99.90
52965;DHT22;42923;53.220;6.528;2023-03-23T06:40:17;10.30;99.90
52965;DHT22;42923;53.220;6.528;2023-03-23T06:42:56;10.20;99.90
52965;DHT22;42923;53.220;6.528;2023-03-23T06:45:39;10.30;99.90
52965;DHT22;42923;53.220;6.528;2023-03-23T06:48:24;10.10;99.90
52965;DHT22;42923;53.220;6.528;2023-03-23T06:50:49;10.10;99.90
52965;DHT22;42923;53.220;6.528;2023-03-23T06:53:17;9.80;99.90
52965;DHT22;42923;53.220;6.528;2023-03-23T06:55:46;9.70;99.90
52965;DHT22;42923;53.220;6.528;2023-03-23T06:58:12;9.60;99.90
52965;DHT22;42923;53.220;6.528;2023-03-23T07:00:39;9.60;99.90
52965;DHT22;42923;53.220;6.528;2023-03-23T07:03:06;9.60;99.90
52965;DHT22;42923;53.220;6.528;2023-03-23T07:05:34;9.60;99.90
52965;DHT22;42923;53.220;6.528;2023-03-23T07:08:04;9.40;99.90
52965;DHT22;42923;53.220;6.528;2023-03-23T07:10:34;9.50;99.90
52965;DHT22;42923;53.220;6.528;2023-03-23T07:13:02;9.50;99.90
52965;DHT22;42923;53.220;6.528;2023-03-23T07:15:39;9.60;99.90
52965;DHT22;42923;53.220;6.528;2023-03-23T07:18:04;9.80;99.90
52965;DHT22;42923;53.220;6.528;2023-03-23T07:20:37;9.70;99.90
52965;DHT22;42923;53.220;6.528;2023-03-23T07:23:03;9.80;99.90
52965;DHT22;42923;53.220;6.528;2023-03-23T07:25:39;9.80;99.90
52965;DHT22;42923;53.220;6.528;2023-03-23T07:28:07;9.90;99.90
52965;DHT22;42923;53.220;6.528;2023-03-23T07:30:33;9.90;99.90
52965;DHT22;42923;53.220;6.528;2023-03-23T07:32:59;9.90;99.90
52965;DHT22;42923;53.220;6.528;2023-03-23T07:35:25;9.90;99.90
52965;DHT22;42923;53.220;6.528;2023-03-23T07:38:02;10.00;99.90
52965;DHT22;42923;53.220;6.528;2023-03-23T07:40:28;10.10;99.90
52965;DHT22;42923;53.220;6.528;2023-03-23T07:43:01;10.30;99.90
52965;DHT22;42923;53.220;6.528;2023-03-23T07:45:48;10.40;99.90
52965;DHT22;42923;53.220;6.528;2023-03-23T07:48:14;10.70;99.90
52965;DHT22;42923;53.220;6.528;2023-03-23T07:50:40;10.90;99.90
52965;DHT22;42923;53.220;6.528;2023-03-23T07:53:10;10.80;99.90
52965;DHT22;42923;53.220;6.528;2023-03-23T07:55:36;10.80;99.90
52965;DHT22;42923;53.220;6.528;2023-03-23T07:58:18;10.80;99.90
52965;DHT22;42923;53.220;6.528;2023-03-23T08:00:46;11.00;99.90
52965;DHT22;42923;53.220;6.528;2023-03-23T08:03:15;11.00;99.90
52965;DHT22;42923;53.220;6.528;2023-03-23T08:05:59;11.00;99.90
52965;DHT22;42923;53.220;6.528;2023-03-23T08:08:44;11.10;99.90
52965;DHT22;42923;53.220;6.528;2023-03-23T08:11:31;11.10;99.90
52965;DHT22;42923;53.220;6.528;2023-03-23T08:14:15;11.10;99.90
52965;DHT22;42923;53.220;6.528;2023-03-23T08:17:16;11.10;99.90
52965;DHT22;42923;53.220;6.528;2023-03-23T08:20:00;11.20;99.90
52965;DHT22;42923;53.220;6.528;2023-03-23T08:22:55;11.20;99.90
52965;DHT22;42923;53.220;6.528;2023-03-23T08:25:41;11.40;99.90
52965;DHT22;42923;53.220;6.528;2023-03-23T08:28:26;11.50;99.90
52965;DHT22;42923;53.220;6.528;2023-03-23T08:31:12;11.60;99.90
52965;DHT22;42923;53.220;6.528;2023-03-23T08:34:02;11.60;99.90
52965;DHT22;42923;53.220;6.528;2023-03-23T08:36:50;11.60;99.90
52965;DHT22;42923;53.220;6.528;2023-03-23T08:39:35;11.60;99.90
52965;DHT22;42923;53.220;6.528;2023-03-23T08:42:20;11.50;99.90
52965;DHT22;42923;53.220;6.528;2023-03-23T08:44:54;11.70;99.90
52965;DHT22;42923;53.220;6.528;2023-03-23T08:47:39;11.90;99.90
52965;DHT22;42923;53.220;6.528;2023-03-23T08:50:14;12.10;99.90
52965;DHT22;42923;53.220;6.528;2023-03-23T08:53:03;12.10;99.90
52965;DHT22;42923;53.220;6.528;2023-03-23T08:55:48;12.10;99.90
52965;DHT22;42923;53.220;6.528;2023-03-23T08:58:36;12.30;99.90
52965;DHT22;42923;53.220;6.528;2023-03-23T09:01:04;12.50;99.90
52965;DHT22;42923;53.220;6.528;2023-03-23T09:03:44;12.60;99.90
52965;DHT22;42923;53.220;6.528;2023-03-23T09:06:19;12.60;99.90
52965;DHT22;42923;53.220;6.528;2023-03-23T09:08:45;12.50;99.90
52965;DHT22;42923;53.220;6.528;2023-03-23T09:11:10;12.50;99.90
52965;DHT22;42923;53.220;6.528;2023-03-23T09:13:38;12.60;99.90
52965;DHT22;42923;53.220;6.528;2023-03-23T09:16:05;12.50;99.90
52965;DHT22;42923;53.220;6.528;2023-03-23T09:18:32;12.50;99.90
52965;DHT22;42923;53.220;6.528;2023-03-23T09:20:59;12.50;99.90
52965;DHT22;42923;53.220;6.528;2023-03-23T09:23:26;12.50;99.90
52965;DHT22;42923;53.220;6.528;2023-03-23T09:25:52;12.70;99.90
52965;DHT22;42923;53.220;6.528;2023-03-23T09:28:18;12.70;99.90
52965;DHT22;42923;53.220;6.528;2023-03-23T09:30:44;12.70;99.90
52965;DHT22;42923;53.220;6.528;2023-03-23T09:33:11;12.60;99.90
52965;DHT22;42923;53.220;6.528;2023-03-23T09:35:37;12.60;99.90
52965;DHT22;42923;53.220;6.528;2023-03-23T09:38:05;12.50;99.90
52965;DHT22;42923;53.220;6.528;2023-03-23T09:40:58;12.40;99.90
52965;DHT22;42923;53.220;6.528;2023-03-23T09:43:47;12.20;99.90
52965;DHT22;42923;53.220;6.528;2023-03-23T09:49:00;12.10;99.90
52965;DHT22;42923;53.220;6.528;2023-03-23T09:54:37;12.30;99.90
52965;DHT22;42923;53.220;6.528;2023-03-23T09:57:11;12.30;99.90
52965;DHT22;42923;53.220;6.528;2023-03-23T09:59:46;12.50;99.90
52965;DHT22;42923;53.220;6.528;2023-03-23T10:02:24;12.80;99.90
52965;DHT22;42923;53.220;6.528;2023-03-23T10:04:55;13.20;99.90
52965;DHT22;42923;53.220;6.528;2023-03-23T10:07:25;13.70;99.90
52965;DHT22;42923;53.220;6.528;2023-03-23T10:09:58;14.00;99.90
52965;DHT22;42923;53.220;6.528;2023-03-23T10:12:56;14.30;99.90
52965;DHT22;42923;53.220;6.528;2023-03-23T10:15:38;14.40;99.90
52965;DHT22;42923;53.220;6.528;2023-03-23T10:18:41;14.70;99.90
52965;DHT22;42923;53.220;6.528;2023-03-23T10:21:03;14.80;99.90
52965;DHT22;42923;53.220;6.528;2023-03-23T10:23:52;15.10;99.90
52965;DHT22;42923;53.220;6.528;2023-03-23T10:26:30;15.40;99.90
52965;DHT22;42923;53.220;6.528;2023-03-23T10:31:36;15.20;99.90
52965;DHT22;42923;53.220;6.528;2023-03-23T10:34:13;15.00;99.90
52965;DHT22;42923;53.220;6.528;2023-03-23T10:36:50;14.80;99.90
52965;DHT22;42923;53.220;6.528;2023-03-23T10:39:22;14.50;99.90
52965;DHT22;42923;53.220;6.528;2023-03-23T10:41:48;14.50;99.90
52965;DHT22;42923;53.220;6.528;2023-03-23T10:44:23;14.20;99.90
52965;DHT22;42923;53.220;6.528;2023-03-23T10:47:06;14.10;99.90
52965;DHT22;42923;53.220;6.528;2023-03-23T10:49:40;13.80;99.90
52965;DHT22;42923;53.220;6.528;2023-03-23T10:52:18;13.80;99.90
52965;DHT22;42923;53.220;6.528;2023-03-23T10:54:54;14.00;99.90
52965;DHT22;42923;53.220;6.528;2023-03-23T10:57:26;14.30;99.90
52965;DHT22;42923;53.220;6.528;2023-03-23T11:03:04;14.10;99.90
52965;DHT22;42923;53.220;6.528;2023-03-23T11:06:04;14.00;99.90
52965;DHT22;42923;53.220;6.528;2023-03-23T11:08:34;13.80;99.90
52965;DHT22;42923;53.220;6.528;2023-03-23T11:14:00;13.70;99.90
52965;DHT22;42923;53.220;6.528;2023-03-23T11:16:29;13.60;99.90
52965;DHT22;42923;53.220;6.528;2023-03-23T11:18:58;13.60;99.90
52965;DHT22;42923;53.220;6.528;2023-03-23T11:21:25;14.00;99.90
52965;DHT22;42923;53.220;6.528;2023-03-23T11:23:59;14.50;99.90
52965;DHT22;42923;53.220;6.528;2023-03-23T11:26:29;15.20;99.90
52965;DHT22;42923;53.220;6.528;2023-03-23T11:29:12;15.80;99.90
52965;DHT22;42923;53.220;6.528;2023-03-23T11:32:22;16.10;99.90
52965;DHT22;42923;53.220;6.528;2023-03-23T11:34:34;16.30;99.90
52965;DHT22;42923;53.220;6.528;2023-03-23T11:39:32;16.30;99.90
52965;DHT22;42923;53.220;6.528;2023-03-23T11:42:01;16.20;99.90
52965;DHT22;42923;53.220;6.528;2023-03-23T11:44:33;16.30;99.90
52965;DHT22;42923;53.220;6.528;2023-03-23T11:47:08;16.50;99.90
52965;DHT22;42923;53.220;6.528;2023-03-23T11:52:45;16.90;99.90
52965;DHT22;42923;53.220;6.528;2023-03-23T11:55:28;16.60;99.90
52965;DHT22;42923;53.220;6.528;2023-03-23T11:57:55;16.30;99.90
52965;DHT22;42923;53.220;6.528;2023-03-23T12:00:25;16.10;99.90
52965;DHT22;42923;53.220;6.528;2023-03-23T12:03:05;16.10;99.90
52965;DHT22;42923;53.220;6.528;2023-03-23T12:11:13;17.60;99.90
52965;DHT22;42923;53.220;6.528;2023-03-23T12:14:02;18.10;98.50
52965;DHT22;42923;53.220;6.528;2023-03-23T12:27:55;17.40;92.10
52965;DHT22;42923;53.220;6.528;2023-03-23T12:30:31;17.40;92.10
52965;DHT22;42923;53.220;6.528;2023-03-23T12:44:13;16.50;93.40
52965;DHT22;42923;53.220;6.528;2023-03-23T12:49:38;16.70;96.30
52965;DHT22;42923;53.220;6.528;2023-03-23T12:52:24;16.80;92.20
52965;DHT22;42923;53.220;6.528;2023-03-23T12:54:58;16.50;93.20
52965;DHT22;42923;53.220;6.528;2023-03-23T13:02:46;15.20;95.60
52965;DHT22;42923;53.220;6.528;2023-03-23T13:06:16;14.90;97.50
52965;DHT22;42923;53.220;6.528;2023-03-23T13:08:39;14.70;98.90
52965;DHT22;42923;53.220;6.528;2023-03-23T13:11:12;14.80;99.90
52965;DHT22;42923;53.220;6.528;2023-03-23T13:13:53;14.90;99.30
52965;DHT22;42923;53.220;6.528;2023-03-23T13:19:29;14.90;99.90
52965;DHT22;42923;53.220;6.528;2023-03-23T13:22:04;14.80;99.90
52965;DHT22;42923;53.220;6.528;2023-03-23T13:24:35;14.70;99.90
52965;DHT22;42923;53.220;6.528;2023-03-23T13:27:02;14.70;99.90
52965;DHT22;42923;53.220;6.528;2023-03-23T13:29:30;14.60;99.90
52965;DHT22;42923;53.220;6.528;2023-03-23T13:32:06;14.70;99.90
52965;DHT22;42923;53.220;6.528;2023-03-23T13:34:36;14.60;99.90
52965;DHT22;42923;53.220;6.528;2023-03-23T13:37:05;14.50;99.90
52965;DHT22;42923;53.220;6.528;2023-03-23T13:39:34;14.50;99.90
52965;DHT22;42923;53.220;6.528;2023-03-23T13:49:59;14.30;99.90
52965;DHT22;42923;53.220;6.528;2023-03-23T13:55:42;14.30;99.90
52965;DHT22;42923;53.220;6.528;2023-03-23T14:00:44;14.60;99.90
52965;DHT22;42923;53.220;6.528;2023-03-23T14:05:43;15.20;99.90
52965;DHT22;42923;53.220;6.528;2023-03-23T14:10:36;15.90;99.90
52965;DHT22;42923;53.220;6.528;2023-03-23T14:13:05;16.00;99.90
52965;DHT22;42923;53.220;6.528;2023-03-23T14:15:53;15.80;99.90
52965;DHT22;42923;53.220;6.528;2023-03-23T14:18:22;15.80;99.90
52965;DHT22;42923;53.220;6.528;2023-03-23T14:20:49;16.20;99.90
52965;DHT22;42923;53.220;6.528;2023-03-23T14:23:16;16.60;99.90
52965;DHT22;42923;53.220;6.528;2023-03-23T14:25:43;16.40;99.90
52965;DHT22;42923;53.220;6.528;2023-03-23T14:28:19;16.00;99.90
52965;DHT22;42923;53.220;6.528;2023-03-23T14:30:52;15.60;99.90
52965;DHT22;42923;53.220;6.528;2023-03-23T14:33:19;15.50;99.90
52965;DHT22;42923;53.220;6.528;2023-03-23T14:35:45;15.40;99.90
52965;DHT22;42923;53.220;6.528;2023-03-23T14:38:21;15.40;99.90
52965;DHT22;42923;53.220;6.528;2023-03-23T14:40:49;15.50;99.90
52965;DHT22;42923;53.220;6.528;2023-03-23T14:43:17;15.60;99.90
52965;DHT22;42923;53.220;6.528;2023-03-23T14:45:52;15.50;99.90
52965;DHT22;42923;53.220;6.528;2023-03-23T14:48:20;16.10;99.90
52965;DHT22;42923;53.220;6.528;2023-03-23T14:51:03;17.00;99.90
52965;DHT22;42923;53.220;6.528;2023-03-23T14:53:40;17.70;99.90
52965;DHT22;42923;53.220;6.528;2023-03-23T14:56:16;17.90;99.90
52965;DHT22;42923;53.220;6.528;2023-03-23T14:58:49;18.00;99.90
52965;DHT22;42923;53.220;6.528;2023-03-23T15:01:27;17.90;99.90
52965;DHT22;42923;53.220;6.528;2023-03-23T15:04:18;17.50;98.00
52965;DHT22;42923;53.220;6.528;2023-03-23T15:06:52;17.20;98.70
52965;DHT22;42923;53.220;6.528;2023-03-23T15:09:21;17.00;99.90
52965;DHT22;42923;53.220;6.528;2023-03-23T15:11:55;17.00;99.90
52965;DHT22;42923;53.220;6.528;2023-03-23T15:14:24;16.70;99.90
52965;DHT22;42923;53.220;6.528;2023-03-23T15:16:53;16.20;99.90
52965;DHT22;42923;53.220;6.528;2023-03-23T15:19:31;15.90;99.90
52965;DHT22;42923;53.220;6.528;2023-03-23T15:22:26;15.70;99.90
52965;DHT22;42923;53.220;6.528;2023-03-23T15:24:53;15.40;99.90
52965;DHT22;42923;53.220;6.528;2023-03-23T15:27:34;15.10;99.90
52965;DHT22;42923;53.220;6.528;2023-03-23T15:32:52;14.80;99.90
52965;DHT22;42923;53.220;6.528;2023-03-23T15:35:23;14.70;99.90
52965;DHT22;42923;53.220;6.528;2023-03-23T15:38:01;14.60;99.90
52965;DHT22;42923;53.220;6.528;2023-03-23T15:40:36;14.50;99.90
52965;DHT22;42923;53.220;6.528;2023-03-23T15:43:24;14.40;99.90
52965;DHT22;42923;53.220;6.528;2023-03-23T15:46:16;14.30;99.90
52965;DHT22;42923;53.220;6.528;2023-03-23T15:48:49;14.30;99.90
52965;DHT22;42923;53.220;6.528;2023-03-23T15:51:20;14.30;99.90
52965;DHT22;42923;53.220;6.528;2023-03-23T15:53:47;14.20;99.90
52965;DHT22;42923;53.220;6.528;2023-03-23T15:56:13;14.10;99.90
52965;DHT22;42923;53.220;6.528;2023-03-23T15:58:39;14.00;99.90
52965;DHT22;42923;53.220;6.528;2023-03-23T16:01:18;13.90;99.90
52965;DHT22;42923;53.220;6.528;2023-03-23T16:06:14;13.80;99.90
52965;DHT22;42923;53.220;6.528;2023-03-23T16:08:41;13.70;99.90
52965;DHT22;42923;53.220;6.528;2023-03-23T16:11:10;13.60;99.90
52965;DHT22;42923;53.220;6.528;2023-03-23T16:13:36;13.70;99.90
52965;DHT22;42923;53.220;6.528;2023-03-23T16:16:02;13.60;99.90
52965;DHT22;42923;53.220;6.528;2023-03-23T16:18:29;13.60;99.90
52965;DHT22;42923;53.220;6.528;2023-03-23T16:20:56;13.60;99.90
52965;DHT22;42923;53.220;6.528;2023-03-23T16:23:22;13.50;99.90
52965;DHT22;42923;53.220;6.528;2023-03-23T16:25:48;13.40;99.90
52965;DHT22;42923;53.220;6.528;2023-03-23T16:28:14;13.40;99.90
52965;DHT22;42923;53.220;6.528;2023-03-23T16:30:41;13.40;99.90
52965;DHT22;42923;53.220;6.528;2023-03-23T16:33:07;13.40;99.90
52965;DHT22;42923;53.220;6.528;2023-03-23T16:35:34;13.40;99.90
52965;DHT22;42923;53.220;6.528;2023-03-23T16:38:01;13.40;99.90
52965;DHT22;42923;53.220;6.528;2023-03-23T16:40:26;13.40;99.90
52965;DHT22;42923;53.220;6.528;2023-03-23T16:42:52;13.50;99.90
52965;DHT22;42923;53.220;6.528;2023-03-23T16:45:19;13.40;99.90
52965;DHT22;42923;53.220;6.528;2023-03-23T16:47:45;13.30;99.90
52965;DHT22;42923;53.220;6.528;2023-03-23T16:50:14;13.20;99.90
52965;DHT22;42923;53.220;6.528;2023-03-23T16:52:42;13.20;99.90
52965;DHT22;42923;53.220;6.528;2023-03-23T16:55:09;13.10;99.90
52965;DHT22;42923;53.220;6.528;2023-03-23T16:57:35;13.10;99.90
52965;DHT22;42923;53.220;6.528;2023-03-23T17:00:09;13.10;99.90
52965;DHT22;42923;53.220;6.528;2023-03-23T17:02:36;13.00;99.90
52965;DHT22;42923;53.220;6.528;2023-03-23T17:05:02;13.00;99.90
52965;DHT22;42923;53.220;6.528;2023-03-23T17:07:28;13.00;99.90
52965;DHT22;42923;53.220;6.528;2023-03-23T17:09:54;12.90;99.90
52965;DHT22;42923;53.220;6.528;2023-03-23T17:12:20;12.90;99.90
52965;DHT22;42923;53.220;6.528;2023-03-23T17:14:46;12.90;99.90
52965;DHT22;42923;53.220;6.528;2023-03-23T17:17:11;12.80;99.90
52965;DHT22;42923;53.220;6.528;2023-03-23T17:19:38;12.80;99.90
52965;DHT22;42923;53.220;6.528;2023-03-23T17:22:03;12.80;99.90
52965;DHT22;42923;53.220;6.528;2023-03-23T17:24:29;12.70;99.90
52965;DHT22;42923;53.220;6.528;2023-03-23T17:26:55;12.60;99.90
52965;DHT22;42923;53.220;6.528;2023-03-23T17:29:21;12.50;99.90
52965;DHT22;42923;53.220;6.528;2023-03-23T17:31:47;12.60;99.90
52965;DHT22;42923;53.220;6.528;2023-03-23T17:34:13;12.50;99.90
52965;DHT22;42923;53.220;6.528;2023-03-23T17:36:39;12.50;99.90
52965;DHT22;42923;53.220;6.528;2023-03-23T17:39:05;12.40;99.90
52965;DHT22;42923;53.220;6.528;2023-03-23T17:41:31;12.40;99.90
52965;DHT22;42923;53.220;6.528;2023-03-23T17:43:56;12.30;99.90
52965;DHT22;42923;53.220;6.528;2023-03-23T17:46:22;12.30;99.90
52965;DHT22;42923;53.220;6.528;2023-03-23T17:48:49;12.20;99.90
52965;DHT22;42923;53.220;6.528;2023-03-23T17:51:14;12.20;99.90